Temp: 13.3°C   Baro: 1030.4mb
  Wind: 0.9mph   Dir: NW (304°)
  Rain: 0.0mm (0.0mm/hr)
  Solar: 0W/m2  Hum: 82%
 
Bath Spa Weather Historical Data
Daily Summary for October 12, 2018 Units:  English    Metric   Both
Next Day »
Daily Weekly Monthly Yearly Custom
  High: Low: Average:
Temperature: 65.1 °F 56.1 °F 61 °F
Dew Point: 61.9 °F 52 °F 57.6 °F
Humidity: 93% 84% 89%
Wind Speed: 36mph 0mph 9.3mph
Wind Gust: 36mph - -
Wind direction- - South
Pressure: 29.8 in 29.6 in -
Precipitation: 0.4 in    
Historical Graphs
 
 
Tabular Data for October 12, 2018
Time Temperature Dew Point Pressure Wind direction Wind Speed Wind Gust Humidity Rainfall Rate (Hourly) solar
00:04 56.3 °F 53.1 °F 29.7 in South 8.9 mph 9 mph 89% 0 in 0.00 W/m2
00:09 56.5 °F 53.2 °F 29.7 in Calm   7 mph 89% 0 in 0.00 W/m2
00:14 56.5 °F 53.2 °F 29.7 in SSW 2 mph 9 mph 89% 0 in 0.00 W/m2
00:19 56.3 °F 52.9 °F 29.7 in SSW 4.9 mph 7 mph 88% 0 in 0.00 W/m2
00:24 56.3 °F 52.9 °F 29.7 in SSW 2.9 mph 9 mph 88% 0 in 0.00 W/m2
00:29 56.3 °F 52.9 °F 29.7 in SSW 4.9 mph 12 mph 88% 0 in 0.00 W/m2
00:34 56.3 °F 52.5 °F 29.7 in SSW 2 mph 9 mph 87% 0 in 0.00 W/m2
00:39 56.3 °F 52.5 °F 29.7 in SSE 4.9 mph 10 mph 87% 0 in 0.00 W/m2
00:44 56.3 °F 52.5 °F 29.7 in Calm   5 mph 87% 0 in 0.00 W/m2
00:49 56.3 °F 52.5 °F 29.7 in South 4 mph 10 mph 87% 0 in 0.00 W/m2
00:54 56.1 °F 52.3 °F 29.7 in SSW 4 mph 5 mph 87% 0 in 0.00 W/m2
00:59 56.3 °F 52.5 °F 29.7 in Calm   4 mph 87% 0 in 0.00 W/m2
01:04 56.3 °F 52.5 °F 29.7 in South 6.9 mph 7 mph 87% 0 in 0.00 W/m2
01:09 56.3 °F 52.2 °F 29.7 in Calm   1 mph 86% 0 in 0.00 W/m2
01:14 56.3 °F 52.2 °F 29.7 in SSW 4 mph 6 mph 86% 0 in 0.00 W/m2
01:19 56.1 °F 52.3 °F 29.7 in South 6.9 mph 7 mph 87% 0 in 0.00 W/m2
01:24 56.1 °F 52 °F 29.7 in SSE 2.9 mph 4 mph 86% 0 in 0.00 W/m2
01:29 56.3 °F 52.2 °F 29.7 in SSW 2.9 mph 12 mph 86% 0 in 0.00 W/m2
01:34 56.3 °F 52.2 °F 29.7 in Calm   3 mph 86% 0 in 0.00 W/m2
01:39 56.1 °F 52 °F 29.7 in SSE 0.9 mph 8 mph 86% 0 in 0.00 W/m2
01:44 56.1 °F 52 °F 29.7 in SSW 0.9 mph 7 mph 86% 0 in 0.00 W/m2
01:49 56.1 °F 52 °F 29.7 in South 2.9 mph 7 mph 86% 0 in 0.00 W/m2
01:54 56.1 °F 52 °F 29.7 in SSW 2 mph 7 mph 86% 0 in 0.00 W/m2
01:59 56.1 °F 52 °F 29.7 in SSE 6.9 mph 11 mph 86% 0 in 0.00 W/m2
02:04 56.3 °F 52.2 °F 29.7 in South 2 mph 11 mph 86% 0 in 0.00 W/m2
02:09 56.3 °F 52.2 °F 29.7 in SSW 6.9 mph 11 mph 86% 0 in 0.00 W/m2
02:14 56.7 °F 52.5 °F 29.7 in SSE 4.9 mph 16 mph 86% 0 in 0.00 W/m2
02:19 56.7 °F 52.5 °F 29.7 in SSW 2 mph 15 mph 86% 0 in 0.00 W/m2
02:24 56.5 °F 52.3 °F 29.7 in SW 6.9 mph 10 mph 86% 0 in 0.00 W/m2
02:29 56.7 °F 52.2 °F 29.7 in SSW 6.9 mph 12 mph 85% 0 in 0.00 W/m2
02:34 56.7 °F 52.2 °F 29.7 in SSE 4 mph 6 mph 85% 0 in 0.00 W/m2
02:39 56.5 °F 52 °F 29.7 in SE 4.9 mph 9 mph 85% 0 in 0.00 W/m2
02:44 56.5 °F 52.3 °F 29.7 in SSE 2 mph 8 mph 86% 0 in 0.00 W/m2
02:54 56.7 °F 52.5 °F 29.7 in South 8.1 mph 10 mph 86% 0 in 0.00 W/m2
02:59 56.8 °F 52.7 °F 29.7 in SSE 6 mph 16 mph 86% 0 in 0.00 W/m2
03:04 57 °F 52.5 °F 29.7 in SSW 6 mph 15 mph 85% 0 in 0.00 W/m2
03:09 57 °F 52.9 °F 29.7 in South 8.1 mph 13 mph 86% 0 in 0.00 W/m2
03:14 57.2 °F 53.1 °F 29.7 in SE 8.1 mph 14 mph 86% 0 in 0.00 W/m2
03:19 57.2 °F 53.1 °F 29.7 in SSW 14.1 mph 16 mph 86% 0 in 0.00 W/m2
03:24 57.6 °F 53.4 °F 29.7 in SSW 4.9 mph 11 mph 86% 0 in 0.00 W/m2
03:29 57.7 °F 53.6 °F 29.7 in SSE 15 mph 15 mph 86% 0 in 0.00 W/m2
03:34 58.1 °F 54 °F 29.7 in SSW 6.9 mph 12 mph 86% 0 in 0.00 W/m2
03:44 58.1 °F 54 °F 29.7 in South 8.1 mph 11 mph 86% 0 in 0.00 W/m2
03:49 58.3 °F 54.1 °F 29.7 in South 11 mph 14 mph 86% 0 in 0.00 W/m2
03:55 58.5 °F 54.3 °F 29.7 in South 12.1 mph 16 mph 86% 0 in 0.00 W/m2
04:00 58.5 °F 54.3 °F 29.6 in South 6.9 mph 13 mph 86% 0 in 0.00 W/m2
04:05 58.6 °F 54.1 °F 29.6 in SSE 6 mph 15 mph 85% 0 in 0.00 W/m2
04:10 58.5 °F 54.3 °F 29.6 in SSW 8.9 mph 18 mph 86% 0 in 0.00 W/m2
04:15 58.6 °F 54.1 °F 29.6 in South 17 mph 18 mph 85% 0.01 in 0.00 W/m2
04:20 58.5 °F 54.3 °F 29.6 in South 6.9 mph 12 mph 86% 0.01 in 0.00 W/m2
04:25 58.6 °F 54.5 °F 29.7 in South 10.1 mph 18 mph 86% 0.01 in 0.00 W/m2
04:30 58.6 °F 54.5 °F 29.7 in SW 10.1 mph 14 mph 86% 0.01 in 0.00 W/m2
04:35 58.8 °F 54.3 °F 29.7 in SW 6 mph 14 mph 85% 0.01 in 0.00 W/m2
04:40 58.8 °F 54.3 °F 29.7 in SSW 14.1 mph 15 mph 85% 0.01 in 0.00 W/m2
04:45 58.6 °F 54.5 °F 29.7 in South 4.9 mph 14 mph 86% 0.01 in 0.00 W/m2
04:50 58.6 °F 54.5 °F 29.7 in SSE 17 mph 17 mph 86% 0.01 in 0.00 W/m2
04:55 58.6 °F 54.5 °F 29.7 in SSW 8.1 mph 17 mph 86% 0.01 in 0.00 W/m2
05:00 58.5 °F 54.3 °F 29.7 in South 6.9 mph 15 mph 86% 0.01 in 0.00 W/m2
05:05 58.5 °F 54.3 °F 29.7 in South 10.1 mph 17 mph 86% 0.02 in 0.00 W/m2
05:10 58.5 °F 54.3 °F 29.7 in South 6 mph 13 mph 86% 0.02 in 0.00 W/m2
05:15 58.1 °F 54 °F 29.7 in South 8.9 mph 15 mph 86% 0.01 in 0.00 W/m2
05:20 58.1 °F 54.3 °F 29.6 in SSE 19 mph 19 mph 87% 0.01 in 0.00 W/m2
05:25 58.1 °F 54.3 °F 29.6 in South 11 mph 20 mph 87% 0.01 in 0.00 W/m2
05:30 57.9 °F 54.1 °F 29.6 in South 12.1 mph 15 mph 87% 0.02 in 0.00 W/m2
05:35 57.9 °F 54.3 °F 29.6 in SSW 12.1 mph 17 mph 88% 0.02 in 0.00 W/m2
05:40 57.9 °F 54.3 °F 29.6 in South 14.1 mph 21 mph 88% 0.02 in 0.00 W/m2
05:45 58.1 °F 54.5 °F 29.6 in SSW 8.1 mph 18 mph 88% 0.02 in 0.00 W/m2
05:50 57.9 °F 54.3 °F 29.6 in SSW 0.9 mph 16 mph 88% 0.02 in 0.00 W/m2
05:55 58.1 °F 54.5 °F 29.6 in SSE 4.9 mph 14 mph 88% 0.02 in 0.00 W/m2
06:00 58.5 °F 54.9 °F 29.6 in SSW 10.1 mph 21 mph 88% 0.02 in 0.00 W/m2
06:05 58.5 °F 54.9 °F 29.7 in South 17 mph 20 mph 88% 0.01 in 0.00 W/m2
06:10 58.6 °F 55 °F 29.7 in SSW 6.9 mph 20 mph 88% 0.01 in 0.00 W/m2
06:15 58.6 °F 55 °F 29.7 in SSW 17 mph 24 mph 88% 0.02 in 0.00 W/m2
06:20 58.6 °F 55 °F 29.7 in South 6.9 mph 15 mph 88% 0.02 in 0.00 W/m2
06:25 58.6 °F 55 °F 29.7 in South 8.9 mph 15 mph 88% 0.02 in 0.00 W/m2
06:30 58.6 °F 55 °F 29.7 in SSW 13 mph 19 mph 88% 0.01 in 0.00 W/m2
06:35 58.8 °F 55.2 °F 29.7 in South 16.1 mph 22 mph 88% 0.01 in 0.00 W/m2
06:40 59 °F 55.4 °F 29.7 in South 10.1 mph 20 mph 88% 0.01 in 0.00 W/m2
06:45 58.8 °F 55.2 °F 29.7 in SW 13 mph 22 mph 88% 0.01 in 0.00 W/m2
06:50 59.2 °F 55.6 °F 29.7 in SSE 26 mph 26 mph 88% 0.01 in 0.00 W/m2
06:55 59.4 °F 55.8 °F 29.7 in South 16.1 mph 20 mph 88% 0.02 in 0.00 W/m2
07:00 59.4 °F 55.8 °F 29.7 in South 4.9 mph 20 mph 88% 0.02 in 0.00 W/m2
07:05 59 °F 55.4 °F 29.7 in SSE 12.1 mph 21 mph 88% 0.02 in 0.00 W/m2
07:10 58.8 °F 55.6 °F 29.7 in SW 13 mph 26 mph 89% 0.02 in 0.00 W/m2
07:15 58.6 °F 55.4 °F 29.7 in SSW 4.9 mph 11 mph 89% 0.04 in 0.00 W/m2
07:20 58.6 °F 55.8 °F 29.7 in SSW 13 mph 22 mph 90% 0.04 in 0.00 W/m2
07:25 58.5 °F 55.6 °F 29.7 in South 8.1 mph 17 mph 90% 0.05 in 0.00 W/m2
07:30 58.5 °F 55.8 °F 29.7 in SSW 6.9 mph 20 mph 91% 0.07 in 0.00 W/m2
07:35 58.5 °F 55.8 °F 29.7 in South 6 mph 11 mph 91% 0.07 in 0.00 W/m2
07:40 58.6 °F 55.9 °F 29.7 in South 8.1 mph 17 mph 91% 0.08 in 0.00 W/m2
07:45 58.6 °F 55.9 °F 29.7 in South 13 mph 18 mph 91% 0.09 in 0.00 W/m2
07:50 58.6 °F 55.9 °F 29.7 in South 6.9 mph 17 mph 91% 0.09 in 0.00 W/m2
07:55 58.8 °F 56.1 °F 29.7 in South 6.9 mph 15 mph 91% 0.08 in 0.00 W/m2
08:00 58.8 °F 56.1 °F 29.7 in SSW 14.1 mph 17 mph 91% 0.09 in 0.00 W/m2
08:05 58.8 °F 56.1 °F 29.7 in SSW 8.1 mph 12 mph 91% 0.09 in 0.00 W/m2
08:10 59 °F 56.3 °F 29.7 in South 12.1 mph 20 mph 91% 0.07 in 5.00 W/m2
08:15 59 °F 56.3 °F 29.7 in South 8.1 mph 15 mph 91% 0.07 in 0.00 W/m2
08:20 59.2 °F 56.5 °F 29.7 in South 13 mph 22 mph 91% 0.06 in 0.00 W/m2
08:25 59.4 °F 56.7 °F 29.7 in SSW 4 mph 16 mph 91% 0.05 in 5.00 W/m2
08:30 59.4 °F 56.7 °F 29.7 in South 4.9 mph 12 mph 91% 0.03 in 5.00 W/m2
08:35 59.7 °F 56.8 °F 29.7 in SSE 11 mph 16 mph 90% 0.03 in 5.00 W/m2
08:40 59.9 °F 57 °F 29.7 in South 8.9 mph 19 mph 90% 0.02 in 5.00 W/m2
08:45 59.9 °F 57 °F 29.7 in SSW 8.1 mph 13 mph 90% 0.02 in 7.00 W/m2
08:50 59.7 °F 56.8 °F 29.7 in South 4 mph 16 mph 90% 0.03 in 7.00 W/m2
08:55 59.4 °F 56.7 °F 29.7 in South 14.1 mph 14 mph 91% 0.03 in 7.00 W/m2
09:00 59.4 °F 56.7 °F 29.7 in South 6 mph 14 mph 91% 0.02 in 12.00 W/m2
09:05 59.4 °F 56.7 °F 29.7 in South 4 mph 9 mph 91% 0.01 in 14.00 W/m2
09:10 59.4 °F 57 °F 29.7 in South 12.1 mph 15 mph 92% 0.01 in 16.00 W/m2
09:15 59.5 °F 56.8 °F 29.7 in SSW 6 mph 10 mph 91% 0.01 in 12.00 W/m2
09:20 59.5 °F 56.8 °F 29.7 in SSE 14.1 mph 19 mph 91% 0.01 in 19.00 W/m2
09:25 59.7 °F 57 °F 29.7 in South 8.9 mph 20 mph 91% 0.01 in 19.00 W/m2
09:30 59.7 °F 57 °F 29.7 in SSW 8.1 mph 18 mph 91% 0.01 in 25.00 W/m2
09:35 59.5 °F 56.8 °F 29.7 in South 10.1 mph 10 mph 91% 0.02 in 21.00 W/m2
09:40 59.4 °F 56.7 °F 29.7 in South 15 mph 15 mph 91% 0.03 in 14.00 W/m2
09:45 59.2 °F 56.8 °F 29.7 in South 17.9 mph 25 mph 92% 0.04 in 21.00 W/m2
09:50 59 °F 56.7 °F 29.7 in South 10.1 mph 11 mph 92% 0.04 in 26.00 W/m2
09:55 58.8 °F 56.8 °F 29.7 in South 10.1 mph 13 mph 93% 0.05 in 33.00 W/m2
10:00 58.8 °F 56.8 °F 29.7 in South 19 mph 20 mph 93% 0.06 in 26.00 W/m2
10:05 59 °F 57 °F 29.7 in SSE 10.1 mph 18 mph 93% 0.07 in 28.00 W/m2
10:10 59 °F 57 °F 29.7 in SSW 12.1 mph 19 mph 93% 0.07 in 32.00 W/m2
10:15 59.4 °F 57 °F 29.7 in SSW 8.9 mph 18 mph 92% 0.09 in 39.00 W/m2
10:20 59.4 °F 57 °F 29.7 in South 6 mph 20 mph 92% 0.09 in 33.00 W/m2
10:25 59.4 °F 57 °F 29.7 in South 10.1 mph 14 mph 92% 0.1 in 47.00 W/m2
10:30 59.5 °F 57.2 °F 29.7 in SSW 4 mph 11 mph 92% 0.11 in 56.00 W/m2
10:35 59.5 °F 57.2 °F 29.7 in SSW 2.9 mph 14 mph 92% 0.11 in 40.00 W/m2
10:40 59.5 °F 57.2 °F 29.7 in SSE 11 mph 15 mph 92% 0.11 in 56.00 W/m2
10:45 59.9 °F 57.2 °F 29.7 in SSW 11 mph 18 mph 91% 0.11 in 51.00 W/m2
10:50 59.9 °F 57.2 °F 29.7 in SSW 8.1 mph 17 mph 91% 0.09 in 60.00 W/m2
10:55 59.9 °F 57.2 °F 29.7 in South 13 mph 13 mph 91% 0.09 in 40.00 W/m2
11:00 59.7 °F 57 °F 29.7 in South 17 mph 21 mph 91% 0.1 in 40.00 W/m2
11:05 59.7 °F 57 °F 29.7 in South 2.9 mph 18 mph 91% 0.11 in 49.00 W/m2
11:10 59.5 °F 56.8 °F 29.7 in South 12.1 mph 19 mph 91% 0.11 in 49.00 W/m2
11:15 59.7 °F 57 °F 29.7 in SSW 2.9 mph 17 mph 91% 0.11 in 56.00 W/m2
11:20 59.7 °F 57 °F 29.7 in SSW 8.9 mph 16 mph 91% 0.11 in 79.00 W/m2
11:25 59.7 °F 57 °F 29.7 in SSW 11 mph 18 mph 91% 0.11 in 67.00 W/m2
11:30 59.7 °F 57 °F 29.7 in South 11 mph 17 mph 91% 0.11 in 81.00 W/m2
11:36 59.9 °F 57.2 °F 29.7 in South 16.1 mph 18 mph 91% 0.11 in 113.00 W/m2
11:41 59.9 °F 57.2 °F 29.7 in South 6.9 mph 18 mph 91% 0.1 in 130.00 W/m2
11:46 59.9 °F 57.2 °F 29.7 in South 12.1 mph 19 mph 91% 0.11 in 123.00 W/m2
11:51 60.1 °F 57.2 °F 29.7 in South 14.1 mph 25 mph 90% 0.1 in 149.00 W/m2
11:56 60.3 °F 57.4 °F 29.7 in SSE 17 mph 18 mph 90% 0.09 in 155.00 W/m2
12:01 60.3 °F 57.4 °F 29.7 in South 17 mph 27 mph 90% 0.08 in 181.00 W/m2
12:06 60.3 °F 57.4 °F 29.7 in SSW 11 mph 14 mph 90% 0.06 in 190.00 W/m2
12:11 60.3 °F 57.4 °F 29.7 in South 17 mph 25 mph 90% 0.05 in 178.00 W/m2
12:16 60.3 °F 57.4 °F 29.7 in SSW 12.1 mph 21 mph 90% 0.04 in 179.00 W/m2
12:21 60.3 °F 57.4 °F 29.7 in South 15 mph 19 mph 90% 0.04 in 83.00 W/m2
12:26 60.4 °F 57.2 °F 29.7 in SSW 16.1 mph 22 mph 89% 0.02 in 67.00 W/m2
12:31 60.8 °F 57.2 °F 29.7 in South 10.1 mph 15 mph 88% 0.02 in 130.00 W/m2
12:36 61.2 °F 57.6 °F 29.7 in SSW 6.9 mph 15 mph 88% 0.01 in 95.00 W/m2
12:41 61.5 °F 57.6 °F 29.7 in SE 11 mph 14 mph 87% 0.01 in 137.00 W/m2
12:46 61.7 °F 57.4 °F 29.7 in South 17.9 mph 20 mph 86% 0 in 128.00 W/m2
12:51 62.2 °F 57.9 °F 29.7 in SW 13 mph 18 mph 86% 0 in 79.00 W/m2
12:56 62.4 °F 58.1 °F 29.7 in South 6 mph 18 mph 86% 0 in 93.00 W/m2
13:01 62.6 °F 58.1 °F 29.7 in South 14.1 mph 24 mph 85% 0 in 63.00 W/m2
13:06 63 °F 58.5 °F 29.7 in SSW 6 mph 18 mph 85% 0 in 77.00 W/m2
13:11 63 °F 58.1 °F 29.7 in South 13 mph 18 mph 84% 0 in 67.00 W/m2
13:16 62.6 °F 58.1 °F 29.7 in SSW 8.1 mph 22 mph 85% 0 in 114.00 W/m2
13:21 62.2 °F 58.3 °F 29.7 in South 10.1 mph 12 mph 87% 0 in 86.00 W/m2
13:26 62.1 °F 58.1 °F 29.7 in South 11 mph 21 mph 87% 0 in 76.00 W/m2
13:31 61.9 °F 58.3 °F 29.7 in South 13 mph 16 mph 88% 0 in 77.00 W/m2
13:36 61.7 °F 58.1 °F 29.7 in South 17 mph 17 mph 88% 0 in 51.00 W/m2
13:41 61.7 °F 58.1 °F 29.7 in South 14.1 mph 15 mph 88% 0 in 37.00 W/m2
13:46 61.5 °F 58.3 °F 29.7 in SSE 8.9 mph 20 mph 89% 0 in 74.00 W/m2
13:51 61.5 °F 58.3 °F 29.7 in SSE 6.9 mph 17 mph 89% 0 in 70.00 W/m2
13:56 61.5 °F 58.6 °F 29.7 in South 12.1 mph 20 mph 90% 0 in 70.00 W/m2
14:01 61.5 °F 58.6 °F 29.7 in SSE 8.1 mph 12 mph 90% 0 in 72.00 W/m2
14:06 61.7 °F 58.8 °F 29.7 in SE 8.9 mph 20 mph 90% 0 in 44.00 W/m2
14:11 61.9 °F 58.6 °F 29.7 in SSW 11 mph 21 mph 89% 0 in 46.00 W/m2
14:16 62.6 °F 59 °F 29.7 in WSW 12.1 mph 27 mph 88% 0 in 35.00 W/m2
14:21 63.1 °F 59.2 °F 29.7 in SSW 4.9 mph 16 mph 87% 0 in 40.00 W/m2
14:26 63.5 °F 59.2 °F 29.7 in South 12.1 mph 18 mph 86% 0 in 63.00 W/m2
14:31 63.9 °F 59.5 °F 29.7 in South 10.1 mph 23 mph 86% 0 in 144.00 W/m2
14:36 64.2 °F 59.5 °F 29.7 in WSW 6 mph 13 mph 85% 0 in 151.00 W/m2
14:41 64.4 °F 59.7 °F 29.7 in South 8.9 mph 22 mph 85% 0 in 128.00 W/m2
14:46 64.6 °F 59.9 °F 29.7 in South 21.9 mph 22 mph 85% 0 in 121.00 W/m2
14:51 64.4 °F 59.7 °F 29.7 in SW 6 mph 20 mph 85% 0 in 83.00 W/m2
14:56 64 °F 59.7 °F 29.7 in South 10.1 mph 11 mph 86% 0 in 54.00 W/m2
15:01 63.9 °F 59.5 °F 29.7 in SW 6 mph 14 mph 86% 0 in 33.00 W/m2
15:06 63.7 °F 59.7 °F 29.7 in SW 8.9 mph 22 mph 87% 0 in 32.00 W/m2
15:11 63.5 °F 59.9 °F 29.7 in South 13 mph 19 mph 88% 0 in 53.00 W/m2
15:16 63.3 °F 59.7 °F 29.7 in South 6.9 mph 8 mph 88% 0 in 62.00 W/m2
15:21 63 °F 59.7 °F 29.7 in South 8.1 mph 14 mph 89% 0 in 60.00 W/m2
15:26 63 °F 59.7 °F 29.7 in South 11 mph 15 mph 89% 0 in 60.00 W/m2
15:31 63.5 °F 59.9 °F 29.7 in SSE 8.1 mph 12 mph 88% 0 in 70.00 W/m2
15:36 63.9 °F 60.3 °F 29.7 in South 6.9 mph 16 mph 88% 0 in 51.00 W/m2
15:41 64 °F 60.1 °F 29.7 in SSW 8.1 mph 18 mph 87% 0 in 53.00 W/m2
15:46 64.2 °F 60.3 °F 29.7 in South 10.1 mph 15 mph 87% 0 in 65.00 W/m2
15:51 64.8 °F 60.4 °F 29.7 in South 6 mph 22 mph 86% 0 in 60.00 W/m2
15:56 64.9 °F 60.6 °F 29.7 in SSW 6 mph 13 mph 86% 0 in 76.00 W/m2
16:01 65.1 °F 60.8 °F 29.7 in SSW 4.9 mph 21 mph 86% 0 in 100.00 W/m2
16:06 65.1 °F 60.4 °F 29.7 in SSE 2.9 mph 24 mph 85% 0 in 62.00 W/m2
16:11 65.1 °F 60.4 °F 29.7 in SSW 11 mph 20 mph 85% 0 in 32.00 W/m2
16:16 64.8 °F 60.4 °F 29.7 in SSW 14.1 mph 15 mph 86% 0 in 14.00 W/m2
16:21 64.2 °F 60.3 °F 29.7 in South 6.9 mph 15 mph 87% 0 in 11.00 W/m2
16:26 63.7 °F 60.1 °F 29.7 in South 8.9 mph 19 mph 88% 0 in 12.00 W/m2
16:31 63.3 °F 60.1 °F 29.7 in SSE 11 mph 11 mph 89% 0 in 11.00 W/m2
16:36 63.3 °F 60.1 °F 29.7 in SSW 8.9 mph 17 mph 89% 0 in 12.00 W/m2
16:41 63.3 °F 60.1 °F 29.7 in SSW 6 mph 10 mph 89% 0 in 12.00 W/m2
16:46 63.3 °F 60.1 °F 29.7 in SSE 8.9 mph 12 mph 89% 0 in 9.00 W/m2
16:51 63.5 °F 60.3 °F 29.7 in South 17 mph 17 mph 89% 0 in 21.00 W/m2
16:56 63.9 °F 60.3 °F 29.7 in SSW 8.1 mph 14 mph 88% 0 in 18.00 W/m2
17:01 63.9 °F 60.3 °F 29.7 in West 6.9 mph 18 mph 88% 0 in 9.00 W/m2
17:06 63.9 °F 60.3 °F 29.7 in SSW 10.1 mph 22 mph 88% 0 in 9.00 W/m2
17:11 63.9 °F 60.6 °F 29.7 in South 6.9 mph 26 mph 89% 0 in 7.00 W/m2
17:16 63.5 °F 60.3 °F 29.7 in SSW 6.9 mph 14 mph 89% 0 in 7.00 W/m2
17:21 63.3 °F 60.1 °F 29.7 in South 19 mph 22 mph 89% 0 in 18.00 W/m2
17:26 63.5 °F 60.3 °F 29.7 in SW 10.1 mph 16 mph 89% 0 in 11.00 W/m2
17:31 63.5 °F 60.3 °F 29.7 in SSW 4 mph 10 mph 89% 0 in 7.00 W/m2
17:36 63.9 °F 60.6 °F 29.7 in South 4 mph 26 mph 89% 0 in 9.00 W/m2
17:41 63.9 °F 60.6 °F 29.7 in SW 17 mph 21 mph 89% 0 in 5.00 W/m2
17:46 63.9 °F 60.6 °F 29.7 in SW 16.1 mph 20 mph 89% 0 in 5.00 W/m2
17:51 63.9 °F 60.6 °F 29.7 in SW 4 mph 15 mph 89% 0 in 0.00 W/m2
17:56 63.9 °F 60.6 °F 29.7 in SSW 6.9 mph 19 mph 89% 0 in 0.00 W/m2
18:01 63.7 °F 60.4 °F 29.7 in South 15 mph 15 mph 89% 0 in 0.00 W/m2
18:06 63.9 °F 60.6 °F 29.7 in South 4.9 mph 17 mph 89% 0 in 0.00 W/m2
18:11 64 °F 60.4 °F 29.7 in SSW 10.1 mph 25 mph 88% 0 in 0.00 W/m2
18:16 64.2 °F 60.6 °F 29.7 in South 8.9 mph 16 mph 88% 0 in 0.00 W/m2
18:21 64.2 °F 60.6 °F 29.7 in SSE 21 mph 21 mph 88% 0 in 0.00 W/m2
18:26 64.4 °F 60.8 °F 29.7 in SSW 16.1 mph 19 mph 88% 0 in 0.00 W/m2
18:31 64.4 °F 60.8 °F 29.7 in SSW 8.9 mph 17 mph 88% 0 in 0.00 W/m2
18:36 64.2 °F 60.6 °F 29.7 in SW 11 mph 21 mph 88% 0 in 0.00 W/m2
18:41 64.2 °F 60.6 °F 29.7 in South 8.1 mph 17 mph 88% 0 in 0.00 W/m2
18:46 64 °F 60.4 °F 29.7 in SSE 6 mph 14 mph 88% 0 in 0.00 W/m2
18:51 63.9 °F 60.6 °F 29.7 in SSW 15 mph 20 mph 89% 0 in 0.00 W/m2
18:56 63.7 °F 60.4 °F 29.7 in SSW 6.9 mph 20 mph 89% 0.01 in 0.00 W/m2
19:01 63.5 °F 60.3 °F 29.7 in South 8.9 mph 25 mph 89% 0.01 in 0.00 W/m2
19:06 63.7 °F 60.4 °F 29.7 in SW 13 mph 20 mph 89% 0.01 in 0.00 W/m2
19:11 63.7 °F 60.4 °F 29.7 in South 6.9 mph 17 mph 89% 0.01 in 0.00 W/m2
19:16 63.9 °F 60.3 °F 29.7 in South 11 mph 15 mph 88% 0.01 in 0.00 W/m2
19:21 63.7 °F 60.4 °F 29.7 in South 6.9 mph 16 mph 89% 0.01 in 0.00 W/m2
19:26 63.9 °F 60.6 °F 29.7 in SSE 6.9 mph 16 mph 89% 0.01 in 0.00 W/m2
19:31 63.9 °F 60.3 °F 29.7 in WSW 4.9 mph 16 mph 88% 0.01 in 0.00 W/m2
19:36 64 °F 60.4 °F 29.7 in SSW 6 mph 18 mph 88% 0.01 in 0.00 W/m2
19:41 64 °F 60.4 °F 29.7 in SSW 15 mph 19 mph 88% 0.01 in 0.00 W/m2
19:46 64.2 °F 60.6 °F 29.7 in SSW 11 mph 22 mph 88% 0.01 in 0.00 W/m2
19:51 64.4 °F 60.4 °F 29.7 in South 10.1 mph 22 mph 87% 0.01 in 0.00 W/m2
19:56 64.6 °F 60.6 °F 29.8 in South 10.1 mph 18 mph 87% 0 in 0.00 W/m2
20:01 64.8 °F 60.8 °F 29.8 in South 8.9 mph 15 mph 87% 0 in 0.00 W/m2
20:06 64.8 °F 60.8 °F 29.8 in SW 2.9 mph 18 mph 87% 0 in 0.00 W/m2
20:11 64.8 °F 60.8 °F 29.8 in South 16.1 mph 26 mph 87% 0 in 0.00 W/m2
20:16 64.6 °F 61 °F 29.8 in SSW 10.1 mph 21 mph 88% 0 in 0.00 W/m2
20:21 64.4 °F 60.8 °F 29.8 in South 4 mph 25 mph 88% 0 in 0.00 W/m2
20:26 64.4 °F 60.8 °F 29.8 in SW 10.1 mph 17 mph 88% 0 in 0.00 W/m2
20:31 64.4 °F 61.2 °F 29.8 in South 11 mph 25 mph 89% 0 in 0.00 W/m2
20:36 64.4 °F 61.2 °F 29.8 in South 8.1 mph 11 mph 89% 0 in 0.00 W/m2
20:42 64.4 °F 61.2 °F 29.8 in South 6 mph 19 mph 89% 0 in 0.00 W/m2
20:47 64.2 °F 61 °F 29.8 in SW 4 mph 12 mph 89% 0 in 0.00 W/m2
20:52 64.2 °F 61 °F 29.8 in SSW 17 mph 17 mph 89% 0 in 0.00 W/m2
20:57 64.2 °F 61 °F 29.7 in South 8.9 mph 18 mph 89% 0 in 0.00 W/m2
21:02 64.2 °F 61 °F 29.7 in SSE 8.9 mph 21 mph 89% 0 in 0.00 W/m2
21:07 64.2 °F 61 °F 29.7 in SW 8.1 mph 23 mph 89% 0 in 0.00 W/m2
21:12 64.4 °F 61.2 °F 29.8 in SW 16.1 mph 16 mph 89% 0 in 0.00 W/m2
21:17 64.4 °F 61.2 °F 29.8 in SSW 6 mph 17 mph 89% 0 in 0.00 W/m2
21:22 64.4 °F 61.2 °F 29.8 in SW 10.1 mph 18 mph 89% 0 in 0.00 W/m2
21:27 64.4 °F 61.2 °F 29.8 in SSW 11 mph 25 mph 89% 0 in 0.00 W/m2
21:32 64.6 °F 61.3 °F 29.8 in South 8.9 mph 20 mph 89% 0 in 0.00 W/m2
21:37 64.6 °F 61.3 °F 29.8 in South 8.9 mph 21 mph 89% 0 in 0.00 W/m2
21:42 64.4 °F 61.3 °F 29.8 in SW 13 mph 22 mph 90% 0 in 0.00 W/m2
21:47 64.4 °F 61.3 °F 29.8 in SW 6 mph 20 mph 90% 0 in 0.00 W/m2
21:52 64.4 °F 61.3 °F 29.8 in SSW 10.1 mph 18 mph 90% 0 in 0.00 W/m2
21:57 64.4 °F 61.3 °F 29.8 in South 15 mph 17 mph 90% 0 in 0.00 W/m2
22:02 64.4 °F 61.3 °F 29.8 in SSW 11 mph 18 mph 90% 0 in 0.00 W/m2
22:07 64.4 °F 61.3 °F 29.8 in South 15 mph 23 mph 90% 0 in 0.00 W/m2
22:12 64.2 °F 61.2 °F 29.8 in SSE 15 mph 21 mph 90% 0 in 0.00 W/m2
22:17 64.2 °F 61.2 °F 29.8 in WSW 11 mph 18 mph 90% 0 in 0.00 W/m2
22:22 64.2 °F 61.5 °F 29.8 in SSW 6.9 mph 21 mph 91% 0 in 0.00 W/m2
22:27 64.2 °F 61.5 °F 29.8 in South 8.1 mph 18 mph 91% 0 in 0.00 W/m2
22:32 64 °F 61.3 °F 29.8 in SSW 8.1 mph 21 mph 91% 0 in 0.00 W/m2
22:37 64 °F 61.3 °F 29.8 in SSE 6.9 mph 20 mph 91% 0 in 0.00 W/m2
22:42 64 °F 61.3 °F 29.8 in SSW 8.1 mph 19 mph 91% 0 in 0.00 W/m2
22:47 64 °F 61.3 °F 29.8 in South 13 mph 20 mph 91% 0 in 0.00 W/m2
22:52 64 °F 61.3 °F 29.8 in SSW 6.9 mph 17 mph 91% 0 in 0.00 W/m2
22:57 64.2 °F 61.5 °F 29.8 in SSW 8.1 mph 28 mph 91% 0 in 0.00 W/m2
23:02 64.2 °F 61.5 °F 29.8 in SSW 36 mph 36 mph 91% 0 in 0.00 W/m2
23:07 64.2 °F 61.5 °F 29.8 in South 17 mph 27 mph 91% 0 in 0.00 W/m2
23:12 64.2 °F 61.5 °F 29.8 in South 6.9 mph 18 mph 91% 0 in 0.00 W/m2
23:17 64.2 °F 61.5 °F 29.8 in SSW 8.1 mph 16 mph 91% 0 in 0.00 W/m2
23:22 64.2 °F 61.5 °F 29.8 in SSW 6.9 mph 20 mph 91% 0 in 0.00 W/m2
23:27 64.2 °F 61.5 °F 29.8 in SSW 8.9 mph 18 mph 91% 0 in 0.00 W/m2
23:32 64 °F 61.7 °F 29.8 in South 8.9 mph 14 mph 92% 0 in 0.00 W/m2
23:37 63.9 °F 61.5 °F 29.8 in SSW 17.9 mph 18 mph 92% 0 in 0.00 W/m2
23:42 63.9 °F 61.5 °F 29.8 in SSW 4.9 mph 12 mph 92% 0 in 0.00 W/m2
23:47 63.9 °F 61.9 °F 29.8 in South 14.1 mph 16 mph 93% 0 in 0.00 W/m2
23:52 63.9 °F 61.9 °F 29.8 in SSW 12.1 mph 18 mph 93% 0 in 0.00 W/m2
23:57 63.7 °F 61.7 °F 29.8 in SW 4 mph 12 mph 93% 0 in 0.00 W/m2